Time;durP1;ratioP1;P1;durP2;ratioP2;P2;SDS_P1;SDS_P2;PMS_P1;PMS_P2;Temp;Humidity;BMP_temperature;BMP_pressure;BME280_temperature;BME280_humidity;BME280_pressure;Samples;Min_cycle;Max_cycle;Signal;HPM_P1;HPM_P2
2022/12/10 00:01:33;;;;;;;1.92;1.63;;;0.40;99.90;;;;;;5089765;28;20430;-73
2022/12/10 00:04:00;;;;;;;1.60;1.50;;;0.40;99.90;;;;;;5087025;28;20430;-73
2022/12/10 00:06:29;;;;;;;1.55;1.48;;;0.40;99.90;;;;;;5086581;28;20946;-73
2022/12/10 00:08:56;;;;;;;2.30;1.27;;;0.40;99.90;;;;;;5079540;28;20422;-73
2022/12/10 00:11:23;;;;;;;3.60;2.23;;;0.40;99.90;;;;;;5069525;28;20467;-74
2022/12/10 00:13:51;;;;;;;1.42;1.33;;;0.40;99.90;;;;;;5074155;28;20798;-74
2022/12/10 00:16:21;;;;;;;2.05;1.73;;;0.30;99.90;;;;;;5072722;28;20518;-76
2022/12/10 00:18:49;;;;;;;2.22;1.75;;;0.30;99.90;;;;;;5073488;28;20518;-75
2022/12/10 00:21:22;;;;;;;2.00;1.30;;;0.30;99.90;;;;;;5071746;28;20514;-75
2022/12/10 00:23:49;;;;;;;2.08;1.63;;;0.30;99.90;;;;;;5072179;28;21014;-74
2022/12/10 00:26:22;;;;;;;3.20;1.60;;;0.30;99.90;;;;;;5085644;28;20900;-74
2022/12/10 00:28:50;;;;;;;2.92;1.10;;;0.30;99.90;;;;;;5092834;28;20432;-73
2022/12/10 00:31:25;;;;;;;2.10;1.70;;;0.30;99.90;;;;;;5081186;28;20477;-74
2022/12/10 00:33:54;;;;;;;4.82;2.00;;;0.30;99.90;;;;;;5072269;28;20431;-74
2022/12/10 00:36:33;;;;;;;1.90;1.43;;;0.40;99.90;;;;;;5087027;28;20542;-74
2022/12/10 00:39:00;;;;;;;2.22;2.00;;;0.40;99.90;;;;;;5078747;28;20508;-73
2022/12/10 00:41:27;;;;;;;3.00;1.70;;;0.40;99.90;;;;;;5081859;28;20422;-75
2022/12/10 00:43:54;;;;;;;1.70;1.08;;;0.40;99.90;;;;;;5078747;28;20462;-74
2022/12/10 00:46:21;;;;;;;2.70;1.55;;;0.30;99.90;;;;;;5091177;28;20492;-74
2022/12/10 00:48:48;;;;;;;4.40;2.40;;;0.30;99.90;;;;;;5077079;28;20423;-74
2022/12/10 00:51:24;;;;;;;2.60;1.75;;;0.30;99.90;;;;;;5091955;28;20432;-74
2022/12/10 00:53:53;;;;;;;1.40;1.23;;;0.30;99.90;;;;;;5090481;28;20513;-74
2022/12/10 00:56:29;;;;;;;3.13;2.22;;;0.20;99.90;;;;;;5078085;28;20414;-74
2022/12/10 00:58:56;;;;;;;2.38;1.73;;;0.20;99.90;;;;;;5071514;28;20431;-74
2022/12/10 01:01:35;;;;;;;1.75;1.58;;;0.30;99.90;;;;;;5091837;28;20428;-74
2022/12/10 01:04:09;;;;;;;1.88;1.65;;;0.30;99.90;;;;;;5079621;28;20798;-74
2022/12/10 01:06:50;;;;;;;1.67;1.57;;;0.30;99.90;;;;;;5088577;28;20500;-74
2022/12/10 01:09:22;;;;;;;5.05;1.25;;;0.30;99.90;;;;;;5091240;28;20429;-74
2022/12/10 01:11:50;;;;;;;2.55;1.88;;;0.20;99.90;;;;;;5085160;28;20433;-75
2022/12/10 01:14:26;;;;;;;1.70;1.45;;;0.20;99.90;;;;;;5071312;28;20431;-74
2022/12/10 01:16:59;;;;;;;2.70;1.13;;;0.20;99.90;;;;;;5074368;28;20514;-75
2022/12/10 01:19:26;;;;;;;3.15;1.60;;;0.20;99.90;;;;;;5072163;28;20759;-75
2022/12/10 01:21:54;;;;;;;1.25;1.15;;;0.20;99.90;;;;;;5070552;28;20431;-74
2022/12/10 01:24:21;;;;;;;2.90;1.90;;;0.20;99.90;;;;;;5086630;28;20428;-74
2022/12/10 01:26:49;;;;;;;2.80;1.88;;;0.20;99.90;;;;;;5088663;28;20929;-74
2022/12/10 01:29:16;;;;;;;1.30;1.02;;;0.20;99.90;;;;;;5071462;28;20897;-77
2022/12/10 01:31:43;;;;;;;1.83;1.67;;;0.20;99.90;;;;;;5071685;28;20431;-72
2022/12/10 01:34:14;;;;;;;3.20;1.88;;;0.20;99.90;;;;;;5069554;28;20445;-73
2022/12/10 01:36:43;;;;;;;3.88;1.75;;;0.20;99.90;;;;;;5071306;28;20430;-73
2022/12/10 01:39:17;;;;;;;1.33;1.33;;;0.20;99.90;;;;;;5069653;28;20428;-73
2022/12/10 01:41:51;;;;;;;4.50;2.28;;;0.20;99.90;;;;;;5071080;28;20794;-72
2022/12/10 01:44:18;;;;;;;2.50;1.48;;;0.20;99.90;;;;;;5071099;28;20511;-73
2022/12/10 01:46:47;;;;;;;1.48;1.38;;;0.20;99.90;;;;;;5071151;28;20434;-72
2022/12/10 01:49:19;;;;;;;2.40;1.85;;;0.20;99.90;;;;;;5074506;28;20955;-73
2022/12/10 01:51:48;;;;;;;2.63;2.15;;;0.10;99.90;;;;;;5070902;28;20423;-73
2022/12/10 01:54:25;;;;;;;3.80;1.60;;;0.20;99.90;;;;;;5070463;28;20514;-73
2022/12/10 01:56:59;;;;;;;3.70;1.73;;;0.20;99.90;;;;;;5070874;28;20431;-72
2022/12/10 01:59:28;;;;;;;3.42;1.88;;;0.30;99.90;;;;;;5072675;28;20432;-72
2022/12/10 02:02:35;;;;;;;5.47;1.65;;;0.30;99.90;;;;;;5090950;28;20429;-72
2022/12/10 02:05:14;;;;;;;3.88;1.50;;;0.30;99.90;;;;;;5089195;28;20430;-72
2022/12/10 02:07:54;;;;;;;3.47;2.28;;;0.20;99.90;;;;;;5091194;28;20426;-73
2022/12/10 02:10:55;;;;;;;1.30;1.30;;;0.20;99.90;;;;;;5071668;28;20432;-73
2022/12/10 02:13:35;;;;;;;1.60;1.25;;;0.20;99.90;;;;;;5069365;28;20448;-73
2022/12/10 02:16:05;;;;;;;1.02;1.02;;;0.00;99.90;;;;;;5070695;28;20428;-73
2022/12/10 02:18:36;;;;;;;2.45;1.17;;;0.00;99.90;;;;;;5070744;28;20427;-73
2022/12/10 02:21:16;;;;;;;2.85;1.92;;;0.10;99.90;;;;;;5069919;28;20435;-72
2022/12/10 02:23:51;;;;;;;2.33;2.13;;;0.00;99.90;;;;;;5070304;28;20435;-73
2022/12/10 02:26:33;;;;;;;1.60;1.50;;;0.10;99.90;;;;;;5070618;28;20723;-72
2022/12/10 02:29:19;;;;;;;2.60;1.50;;;0.00;99.90;;;;;;5080577;28;20863;-73
2022/12/10 02:31:56;;;;;;;5.35;2.35;;;0.00;99.90;;;;;;5074582;28;20429;-73
2022/12/10 02:34:26;;;;;;;2.20;1.27;;;0.00;99.90;;;;;;5076063;28;20824;-72
2022/12/10 02:36:56;;;;;;;2.95;1.70;;;0.00;99.90;;;;;;5070088;28;20898;-72
2022/12/10 02:39:30;;;;;;;1.33;1.02;;;0.00;99.90;;;;;;5070242;28;20423;-72
2022/12/10 02:42:02;;;;;;;1.70;1.57;;;0.00;99.90;;;;;;5069588;28;20455;-73
2022/12/10 02:44:30;;;;;;;1.90;1.65;;;0.00;99.90;;;;;;5069877;28;20446;-73
2022/12/10 02:47:01;;;;;;;2.70;1.90;;;0.00;99.90;;;;;;5069287;28;20427;-73
2022/12/10 02:49:37;;;;;;;1.45;1.42;;;0.00;99.90;;;;;;5070617;28;20431;-73
2022/12/10 02:52:12;;;;;;;2.75;1.95;;;-0.10;99.90;;;;;;5070220;28;20415;-73
2022/12/10 02:54:41;;;;;;;1.37;1.23;;;-0.20;99.90;;;;;;5069728;28;21204;-73
2022/12/10 02:57:36;;;;;;;2.08;1.65;;;-0.30;99.90;;;;;;5070469;28;20457;-73
2022/12/10 03:00:06;;;;;;;2.33;2.13;;;-0.30;99.90;;;;;;5068440;28;20436;-73
2022/12/10 03:03:10;;;;;;;1.30;1.20;;;-0.40;99.90;;;;;;5069478;28;20431;-73
2022/12/10 03:05:46;;;;;;;4.07;1.83;;;-0.40;99.90;;;;;;5067561;28;20435;-73
2022/12/10 03:08:15;;;;;;;3.35;1.92;;;-0.40;99.90;;;;;;5081932;28;20433;-73
2022/12/10 03:11:04;;;;;;;1.75;1.65;;;-0.30;99.90;;;;;;5088879;28;21161;-73
2022/12/10 03:13:54;;;;;;;1.90;1.77;;;-0.40;99.90;;;;;;5088948;28;20531;-73
2022/12/10 03:16:23;;;;;;;1.58;1.48;;;-0.40;99.90;;;;;;5069155;28;20433;-73
2022/12/10 03:18:57;;;;;;;1.40;1.27;;;-0.40;99.90;;;;;;5086206;28;20421;-73
2022/12/10 03:21:28;;;;;;;3.10;1.70;;;-0.40;99.90;;;;;;5068946;28;20442;-73
2022/12/10 03:23:54;;;;;;;1.90;1.55;;;-0.50;99.90;;;;;;5076335;28;20449;-73
2022/12/10 03:26:23;;;;;;;1.90;1.70;;;-0.50;99.90;;;;;;5076901;28;20419;-73
2022/12/10 03:29:12;;;;;;;1.40;1.30;;;-0.60;99.90;;;;;;5081841;28;20923;-73
2022/12/10 03:31:40;;;;;;;2.80;2.25;;;-0.60;99.90;;;;;;5076020;28;20423;-73
2022/12/10 03:34:10;;;;;;;5.13;2.10;;;-0.60;99.90;;;;;;5076304;28;20451;-72
2022/12/10 03:36:38;;;;;;;2.13;1.92;;;-0.50;99.90;;;;;;5089593;28;20430;-72
2022/12/10 03:39:06;;;;;;;1.90;1.52;;;-0.50;99.90;;;;;;5074868;28;20429;-72
2022/12/10 03:41:34;;;;;;;5.30;1.90;;;-0.30;99.90;;;;;;5089540;28;20430;-72
2022/12/10 03:44:00;;;;;;;1.65;1.08;;;-0.30;99.90;;;;;;5078003;28;20433;-72
2022/12/10 03:46:30;;;;;;;1.70;1.60;;;-0.20;99.90;;;;;;5089320;28;20428;-72
2022/12/10 03:49:03;;;;;;;1.83;1.02;;;-0.20;99.90;;;;;;5092817;28;20960;-72
2022/12/10 03:51:30;;;;;;;2.20;1.88;;;-0.20;99.90;;;;;;5078751;28;20428;-72
2022/12/10 03:53:57;;;;;;;5.40;2.15;;;-0.20;99.90;;;;;;5080433;28;20425;-72
2022/12/10 03:56:24;;;;;;;2.15;1.77;;;-0.20;99.90;;;;;;5091975;28;20429;-73
2022/12/10 03:58:50;;;;;;;1.40;1.30;;;-0.30;99.90;;;;;;5088689;28;20490;-72
2022/12/10 04:01:17;;;;;;;1.30;1.20;;;-0.30;99.90;;;;;;5082787;28;20429;-73
2022/12/10 04:03:46;;;;;;;4.80;1.55;;;-0.40;99.90;;;;;;5087760;28;20931;-72
2022/12/10 04:06:17;;;;;;;2.53;1.85;;;-0.50;99.90;;;;;;5086636;28;20434;-71
2022/12/10 04:08:47;;;;;;;1.40;1.30;;;-0.60;99.90;;;;;;5072944;28;20429;-72
2022/12/10 04:11:23;;;;;;;1.90;1.65;;;-0.60;99.90;;;;;;5070268;28;20426;-72
2022/12/10 04:16:37;;;;;;;1.90;1.20;;;-0.80;99.90;;;;;;5072458;28;20431;-72
2022/12/10 04:19:13;;;;;;;1.90;1.47;;;-0.70;99.90;;;;;;5072250;28;20434;-72
2022/12/10 04:27:21;;;;;;;1.30;1.30;;;-0.80;99.90;;;;;;5070686;28;20423;-72
2022/12/10 04:29:51;;;;;;;2.33;1.20;;;-0.80;99.90;;;;;;5071431;28;20510;-72
2022/12/10 04:32:19;;;;;;;1.00;0.80;;;-0.80;99.90;;;;;;5076912;28;20441;-72
2022/12/10 04:34:49;;;;;;;1.10;0.95;;;-0.80;99.90;;;;;;5071722;28;20798;-72
2022/12/10 04:37:17;;;;;;;3.00;1.30;;;-0.80;99.90;;;;;;5072210;28;20470;-72
2022/12/10 04:39:44;;;;;;;1.35;1.00;;;-0.80;99.90;;;;;;5072315;28;20790;-72
2022/12/10 04:42:11;;;;;;;2.17;1.63;;;-0.90;99.90;;;;;;5085565;28;20441;-72
2022/12/10 04:44:40;;;;;;;1.05;1.05;;;-0.90;99.90;;;;;;5091723;28;20436;-72
2022/12/10 04:47:08;;;;;;;1.33;1.23;;;-0.90;99.90;;;;;;5085169;28;20453;-72
2022/12/10 04:49:35;;;;;;;1.17;1.17;;;-0.90;99.90;;;;;;5071992;28;21212;-72
2022/12/10 04:52:04;;;;;;;0.80;0.80;;;-1.00;99.90;;;;;;5071230;28;20447;-72
2022/12/10 04:54:30;;;;;;;1.10;1.00;;;-1.00;99.90;;;;;;5070736;28;20505;-72
2022/12/10 04:57:04;;;;;;;2.03;1.60;;;-1.00;99.90;;;;;;5070624;28;20437;-73
2022/12/10 04:59:31;;;;;;;1.00;1.00;;;-1.20;99.90;;;;;;5084712;28;20432;-73
2022/12/10 05:02:00;;;;;;;1.15;0.88;;;-1.20;99.90;;;;;;5082776;28;20420;-72
2022/12/10 05:04:27;;;;;;;2.47;1.17;;;-1.20;99.90;;;;;;5075939;28;20929;-72
2022/12/10 05:06:57;;;;;;;1.63;0.87;;;-1.20;99.90;;;;;;5071673;28;20424;-72
2022/12/10 05:09:24;;;;;;;1.15;0.90;;;-1.20;99.90;;;;;;5071648;28;20786;-72
2022/12/10 05:11:50;;;;;;;1.03;1.03;;;-1.30;99.90;;;;;;5076597;28;20452;-72
2022/12/10 05:14:17;;;;;;;1.08;0.88;;;-1.40;99.90;;;;;;5087325;28;21036;-72
2022/12/10 05:16:50;;;;;;;1.07;1.07;;;-1.40;99.90;;;;;;5091438;28;20426;-72
2022/12/10 05:19:19;;;;;;;1.00;0.82;;;-1.40;99.90;;;;;;5086744;28;20429;-73
2022/12/10 05:24:31;;;;;;;0.90;0.77;;;-1.40;99.90;;;;;;5070093;28;20602;-73
2022/12/10 05:26:58;;;;;;;1.23;1.23;;;-1.40;99.90;;;;;;5074488;28;20420;-73
2022/12/10 05:29:28;;;;;;;2.65;0.98;;;-1.50;99.90;;;;;;5070708;28;20435;-73
2022/12/10 05:31:54;;;;;;;1.33;1.17;;;-1.60;99.90;;;;;;5071329;28;20420;-72
2022/12/10 05:34:22;;;;;;;1.20;0.80;;;-1.60;99.90;;;;;;5085445;28;20826;-72
2022/12/10 05:36:49;;;;;;;2.08;1.35;;;-1.70;99.90;;;;;;5091107;28;20422;-73
2022/12/10 05:39:16;;;;;;;0.82;0.55;;;-1.70;99.90;;;;;;5091549;28;20451;-73
2022/12/10 05:41:43;;;;;;;1.00;1.00;;;-1.70;99.90;;;;;;5091273;28;20444;-73
2022/12/10 05:44:13;;;;;;;1.73;1.38;;;-1.70;99.90;;;;;;5089637;28;20989;-72
2022/12/10 05:46:40;;;;;;;0.82;0.82;;;-1.70;99.90;;;;;;5078297;28;20421;-72
2022/12/10 05:49:07;;;;;;;0.83;0.83;;;-1.70;99.90;;;;;;5091411;28;20451;-72
2022/12/10 05:51:37;;;;;;;1.80;0.95;;;-1.70;99.90;;;;;;5091089;28;20517;-73
2022/12/10 05:54:05;;;;;;;1.10;1.05;;;-1.70;99.90;;;;;;5078777;28;20435;-73
2022/12/10 05:56:32;;;;;;;0.77;0.77;;;-1.80;99.90;;;;;;5070690;28;20470;-71
2022/12/10 05:59:01;;;;;;;2.75;1.05;;;-1.90;99.90;;;;;;5070884;28;20432;-71
2022/12/10 06:01:31;;;;;;;5.35;1.63;;;-2.00;99.90;;;;;;5079932;28;21123;-71
2022/12/10 06:04:02;;;;;;;1.30;0.95;;;-2.00;99.90;;;;;;5090037;28;20903;-71
2022/12/10 06:06:31;;;;;;;1.15;0.88;;;-2.10;99.90;;;;;;5078871;28;20427;-71
2022/12/10 06:08:58;;;;;;;2.45;1.05;;;-2.20;99.90;;;;;;5070572;28;20424;-72
2022/12/10 06:11:26;;;;;;;2.20;0.60;;;-2.20;99.90;;;;;;5073819;28;20909;-72
2022/12/10 06:13:54;;;;;;;1.60;1.40;;;-2.30;99.90;;;;;;5071926;28;20481;-71
2022/12/10 06:16:23;;;;;;;1.95;1.05;;;-2.40;99.90;;;;;;5073187;28;20430;-71
2022/12/10 06:18:50;;;;;;;0.82;0.82;;;-2.50;99.90;;;;;;5090802;28;20436;-71
2022/12/10 06:21:18;;;;;;;0.90;0.90;;;-2.50;99.90;;;;;;5087329;28;20427;-71
2022/12/10 06:23:45;;;;;;;0.63;0.63;;;-2.60;99.90;;;;;;5087297;28;20491;-71
2022/12/10 06:26:18;;;;;;;1.23;1.17;;;-2.70;99.90;;;;;;5081626;28;20431;-71
2022/12/10 06:28:45;;;;;;;0.60;0.60;;;-2.80;99.90;;;;;;5085916;28;20501;-71
2022/12/10 06:31:13;;;;;;;0.50;0.50;;;-2.90;99.90;;;;;;5081842;28;20427;-71
2022/12/10 06:33:41;;;;;;;1.55;1.45;;;-3.00;99.90;;;;;;5081370;28;20498;-71
2022/12/10 06:36:09;;;;;;;0.75;0.68;;;-3.10;99.90;;;;;;5087270;28;20430;-71
2022/12/10 06:38:36;;;;;;;1.27;1.17;;;-3.20;99.90;;;;;;5087564;28;20425;-71
2022/12/10 06:41:10;;;;;;;1.10;0.90;;;-3.20;99.90;;;;;;5084752;28;20436;-70
2022/12/10 06:43:37;;;;;;;1.60;1.40;;;-3.20;99.90;;;;;;5083249;28;20731;-71
2022/12/10 06:46:11;;;;;;;1.30;1.20;;;-3.20;99.90;;;;;;5079185;28;20417;-71
2022/12/10 06:48:38;;;;;;;1.05;0.95;;;-3.20;99.90;;;;;;5079401;28;20421;-71
2022/12/10 06:51:06;;;;;;;1.00;0.65;;;-3.10;99.90;;;;;;5087904;28;20429;-71
2022/12/10 06:53:36;;;;;;;0.98;0.93;;;-3.10;99.90;;;;;;5076678;28;20467;-71
2022/12/10 06:56:04;;;;;;;0.90;0.90;;;-3.10;99.90;;;;;;5069624;28;20435;-71
2022/12/10 06:58:32;;;;;;;0.90;0.90;;;-3.10;99.90;;;;;;5081890;28;20754;-71
2022/12/10 07:01:19;;;;;;;0.57;0.57;;;-3.10;99.90;;;;;;5085254;28;20433;-71
2022/12/10 07:03:51;;;;;;;1.10;1.03;;;-3.00;99.90;;;;;;5087383;28;20804;-71
2022/12/10 07:06:18;;;;;;;1.05;1.05;;;-3.00;99.90;;;;;;5078471;28;20431;-71
2022/12/10 07:08:46;;;;;;;1.20;0.95;;;-2.90;99.90;;;;;;5077412;28;20423;-71
2022/12/10 07:11:14;;;;;;;1.00;1.00;;;-2.80;99.90;;;;;;5087852;28;20430;-71
2022/12/10 07:13:41;;;;;;;2.30;1.23;;;-2.80;99.90;;;;;;5082818;28;20427;-71
2022/12/10 07:16:22;;;;;;;2.22;1.02;;;-2.80;99.90;;;;;;5088690;28;20461;-71
2022/12/10 07:18:50;;;;;;;1.50;0.75;;;-2.80;99.90;;;;;;5079335;28;20435;-71
2022/12/10 07:21:24;;;;;;;3.25;1.27;;;-2.80;99.90;;;;;;5086377;28;20490;-71
2022/12/10 07:23:57;;;;;;;0.77;0.77;;;-2.70;99.90;;;;;;5086135;28;20902;-71
2022/12/10 07:26:28;;;;;;;0.50;0.50;;;-2.60;99.90;;;;;;5071552;28;20477;-71
2022/12/10 07:28:54;;;;;;;2.10;0.93;;;-2.60;99.90;;;;;;5073598;28;20423;-71
2022/12/10 07:31:22;;;;;;;1.20;1.05;;;-2.50;99.90;;;;;;5083939;28;20429;-71
2022/12/10 07:33:51;;;;;;;0.98;0.98;;;-2.40;99.90;;;;;;5085110;28;20487;-71
2022/12/10 07:36:19;;;;;;;1.57;1.17;;;-2.30;99.90;;;;;;5068803;28;20435;-71
2022/12/10 07:38:46;;;;;;;1.85;0.80;;;-2.20;99.90;;;;;;5082272;28;20423;-71
2022/12/10 07:41:13;;;;;;;1.33;1.10;;;-2.10;99.90;;;;;;5067041;28;20891;-71
2022/12/10 07:43:42;;;;;;;0.95;0.95;;;-2.00;99.90;;;;;;5075655;28;20430;-71
2022/12/10 07:46:18;;;;;;;4.30;2.00;;;-1.90;99.90;;;;;;5087593;28;20429;-73
2022/12/10 07:48:46;;;;;;;3.00;1.57;;;-1.70;99.90;;;;;;5085558;28;20418;-71
2022/12/10 07:51:14;;;;;;;3.50;1.73;;;-1.50;99.90;;;;;;5080692;28;20522;-71
2022/12/10 07:53:41;;;;;;;1.48;1.13;;;-1.40;99.90;;;;;;5095230;28;20430;-71
2022/12/10 07:56:09;;;;;;;1.33;1.23;;;-1.30;99.90;;;;;;5083566;28;20427;-71
2022/12/10 07:58:36;;;;;;;3.55;1.15;;;-1.20;99.90;;;;;;5089387;28;20429;-70
2022/12/10 08:01:08;;;;;;;1.58;1.48;;;-1.10;99.90;;;;;;5076173;28;20437;-71
2022/12/10 08:03:36;;;;;;;1.13;1.02;;;-1.10;99.90;;;;;;5073579;28;20492;-71
2022/12/10 08:06:13;;;;;;;2.08;1.65;;;-1.10;99.90;;;;;;5087230;28;20432;-71
2022/12/10 08:08:41;;;;;;;1.35;1.33;;;-1.00;99.90;;;;;;5089449;28;20516;-71
2022/12/10 08:11:08;;;;;;;0.88;0.88;;;-1.00;99.90;;;;;;5071852;28;20975;-70
2022/12/10 08:13:35;;;;;;;3.30;1.50;;;-0.90;99.90;;;;;;5077982;28;20434;-71
2022/12/10 08:16:10;;;;;;;1.40;1.30;;;-0.90;99.90;;;;;;5079020;28;20521;-71
2022/12/10 08:18:37;;;;;;;1.83;1.15;;;-0.90;99.90;;;;;;5069864;28;20968;-71
2022/12/10 08:21:12;;;;;;;3.25;1.48;;;-0.80;99.90;;;;;;5086781;28;20424;-71
2022/12/10 08:23:41;;;;;;;2.07;1.87;;;-0.80;99.90;;;;;;5076789;28;20742;-71
2022/12/10 08:26:11;;;;;;;1.63;1.52;;;-0.80;99.90;;;;;;5078536;28;20432;-71
2022/12/10 08:28:38;;;;;;;1.27;1.23;;;-0.70;99.90;;;;;;5077387;28;21306;-71
2022/12/10 08:31:06;;;;;;;2.37;1.33;;;-0.60;99.90;;;;;;5074191;28;20431;-71
2022/12/10 08:33:34;;;;;;;1.60;1.50;;;-0.60;99.90;;;;;;5080623;28;20418;-71
2022/12/10 08:36:02;;;;;;;1.13;1.13;;;-0.50;99.90;;;;;;5099476;28;20462;-71
2022/12/10 08:38:30;;;;;;;1.00;0.97;;;-0.40;99.90;;;;;;5072137;28;20544;-71
2022/12/10 08:40:57;;;;;;;1.40;1.40;;;-0.30;99.90;;;;;;5092982;28;20766;-71
2022/12/10 08:43:25;;;;;;;1.50;1.43;;;-0.30;99.90;;;;;;5080299;28;20431;-71
2022/12/10 08:45:51;;;;;;;1.85;1.30;;;-0.20;99.90;;;;;;5075934;28;20514;-72
2022/12/10 08:48:18;;;;;;;1.02;0.95;;;-0.10;99.90;;;;;;5084324;28;20483;-72
2022/12/10 08:50:47;;;;;;;2.33;1.83;;;0.00;99.90;;;;;;5081857;28;20467;-72
2022/12/10 08:53:14;;;;;;;2.00;1.90;;;0.10;99.90;;;;;;5086677;28;20542;-72
2022/12/10 08:55:54;;;;;;;3.00;1.88;;;0.20;99.90;;;;;;5079889;28;20434;-71
2022/12/10 08:58:21;;;;;;;2.72;1.30;;;0.30;99.90;;;;;;5079751;28;20433;-75
2022/12/10 09:00:49;;;;;;;1.50;1.40;;;0.30;99.90;;;;;;5074899;28;20426;-73
2022/12/10 09:03:16;;;;;;;1.70;1.38;;;0.50;99.90;;;;;;5078751;28;20452;-73
2022/12/10 09:05:44;;;;;;;1.33;1.23;;;0.60;99.90;;;;;;5085797;28;20518;-72
2022/12/10 09:08:13;;;;;;;2.70;1.58;;;0.60;99.90;;;;;;5086264;28;20431;-72
2022/12/10 09:10:40;;;;;;;3.80;1.50;;;0.70;99.90;;;;;;5081965;28;20422;-72
2022/12/10 09:13:07;;;;;;;3.30;1.48;;;0.80;99.90;;;;;;5086673;28;20906;-72
2022/12/10 09:15:34;;;;;;;2.38;2.17;;;0.80;99.90;;;;;;5076022;28;20426;-72
2022/12/10 09:18:01;;;;;;;1.88;1.73;;;0.80;99.90;;;;;;5083098;28;20495;-72
2022/12/10 09:20:27;;;;;;;2.20;2.10;;;0.90;99.90;;;;;;5071938;28;20428;-72
2022/12/10 09:22:54;;;;;;;4.50;2.05;;;0.90;99.90;;;;;;5076158;28;20436;-73
2022/12/10 09:25:21;;;;;;;2.95;1.33;;;1.10;99.90;;;;;;5084951;28;20427;-72
2022/12/10 09:27:48;;;;;;;4.00;1.50;;;1.30;99.90;;;;;;5084518;28;20430;-73
2022/12/10 09:30:16;;;;;;;1.05;1.05;;;1.30;99.90;;;;;;5077557;28;20438;-72
2022/12/10 09:32:43;;;;;;;2.70;1.60;;;1.40;99.90;;;;;;5078445;28;20439;-72
2022/12/10 09:35:09;;;;;;;2.08;1.98;;;1.50;99.90;;;;;;5068602;28;20458;-73
2022/12/10 09:37:36;;;;;;;0.98;0.98;;;1.60;99.90;;;;;;5086293;28;20429;-73
2022/12/10 09:40:03;;;;;;;1.75;1.60;;;1.70;99.90;;;;;;5077229;28;20796;-72
2022/12/10 09:43:02;;;;;;;2.70;1.63;;;1.70;99.90;;;;;;5084048;28;20430;-72
2022/12/10 09:46:11;;;;;;;1.15;1.02;;;1.80;99.90;;;;;;5075287;28;20420;-65
2022/12/10 09:49:18;;;;;;;1.45;1.35;;;1.90;99.90;;;;;;5068518;28;20438;-73
2022/12/10 09:51:46;;;;;;;1.80;1.48;;;1.90;99.90;;;;;;5076804;28;20980;-73
2022/12/10 09:54:43;;;;;;;1.60;1.48;;;2.10;99.90;;;;;;5075250;28;21132;-73
2022/12/10 09:57:23;;;;;;;1.13;1.13;;;2.10;99.90;;;;;;5080784;28;20430;-72
2022/12/10 09:59:53;;;;;;;2.60;1.38;;;2.20;99.90;;;;;;5075066;28;20433;-72
2022/12/10 10:02:27;;;;;;;2.25;1.17;;;2.20;99.90;;;;;;5077080;28;20437;-73
2022/12/10 10:05:13;;;;;;;2.75;1.52;;;2.00;99.90;;;;;;5071110;28;20424;-72
2022/12/10 10:07:54;;;;;;;2.00;1.88;;;2.00;99.90;;;;;;5083355;28;20444;-72
2022/12/10 10:10:29;;;;;;;2.80;2.03;;;2.00;99.90;;;;;;5088815;28;20434;-72
2022/12/10 10:13:12;;;;;;;1.50;1.20;;;2.00;99.90;;;;;;5073218;28;20427;-73
2022/12/10 10:15:42;;;;;;;1.67;1.58;;;2.00;99.90;;;;;;5096935;27;20438;-73
2022/12/10 10:18:17;;;;;;;1.20;1.10;;;1.90;99.90;;;;;;5071818;28;21163;-74
2022/12/10 10:20:45;;;;;;;3.30;1.30;;;1.80;99.90;;;;;;5078438;28;20895;-73
2022/12/10 10:23:14;;;;;;;1.02;1.02;;;1.80;99.90;;;;;;5077186;28;20566;-73
2022/12/10 10:25:42;;;;;;;2.88;1.73;;;2.00;99.90;;;;;;5079906;28;20902;-73
2022/12/10 10:28:18;;;;;;;2.45;1.88;;;2.00;99.90;;;;;;5080578;28;20428;-74
2022/12/10 10:30:44;;;;;;;5.00;2.92;;;2.20;99.90;;;;;;5081527;28;20505;-73
2022/12/10 10:33:13;;;;;;;1.90;1.73;;;2.30;99.90;;;;;;5083451;28;20453;-74
2022/12/10 10:35:56;;;;;;;2.30;1.35;;;2.40;99.90;;;;;;5074309;28;20426;-74
2022/12/10 10:38:27;;;;;;;3.30;1.70;;;2.80;99.90;;;;;;5083831;28;20425;-74
2022/12/10 10:40:57;;;;;;;2.83;1.55;;;3.00;99.90;;;;;;5079166;28;20425;-73
2022/12/10 10:44:00;;;;;;;3.20;1.15;;;3.20;99.90;;;;;;5067057;28;20452;-75
2022/12/10 10:46:27;;;;;;;1.85;1.65;;;3.30;99.90;;;;;;5089483;28;20421;-74
2022/12/10 10:49:13;;;;;;;1.58;1.48;;;3.40;99.90;;;;;;5076453;28;21369;-73
2022/12/10 10:51:45;;;;;;;2.90;1.90;;;3.60;99.90;;;;;;5085389;28;20426;-74
2022/12/10 10:54:29;;;;;;;5.20;3.35;;;3.60;99.90;;;;;;5080639;28;20481;-78
2022/12/10 10:56:56;;;;;;;1.70;1.42;;;3.50;99.90;;;;;;5074086;28;20475;-74
2022/12/10 10:59:32;;;;;;;4.07;1.70;;;3.30;99.90;;;;;;5080621;28;20572;-73
2022/12/10 11:02:16;;;;;;;2.20;1.83;;;3.00;99.90;;;;;;5067650;28;20424;-75
2022/12/10 11:04:51;;;;;;;2.25;2.00;;;2.80;99.90;;;;;;5056750;28;20428;-74
2022/12/10 11:07:25;;;;;;;2.30;2.00;;;2.70;99.90;;;;;;5079411;28;20425;-73
2022/12/10 11:09:54;;;;;;;2.17;1.98;;;2.70;99.90;;;;;;5078071;28;20424;-74
2022/12/10 11:12:34;;;;;;;2.20;1.95;;;2.80;99.90;;;;;;5074033;28;20422;-75
2022/12/10 11:15:01;;;;;;;4.07;1.92;;;2.90;99.90;;;;;;5080464;28;20425;-74
2022/12/10 11:17:28;;;;;;;1.13;1.10;;;2.90;99.90;;;;;;5072703;28;20426;-75
2022/12/10 11:20:14;;;;;;;2.03;1.85;;;2.80;99.90;;;;;;5074769;28;20494;-75
2022/12/10 11:22:54;;;;;;;1.60;1.50;;;2.70;99.90;;;;;;5082124;28;20425;-74
2022/12/10 11:25:31;;;;;;;3.55;1.38;;;2.50;99.90;;;;;;5074805;28;20438;-75
2022/12/10 11:28:09;;;;;;;1.65;1.10;;;2.50;99.90;;;;;;5080586;28;20426;-75
2022/12/10 11:30:43;;;;;;;1.50;1.40;;;2.50;99.90;;;;;;5084844;28;20440;-74
2022/12/10 11:33:22;;;;;;;1.33;1.23;;;2.60;99.90;;;;;;5084407;28;20520;-75
2022/12/10 11:36:23;;;;;;;2.00;1.35;;;2.70;99.90;;;;;;5082435;28;20429;-75
2022/12/10 11:39:20;;;;;;;2.10;1.80;;;2.80;99.90;;;;;;5063967;28;20431;-74
2022/12/10 11:41:56;;;;;;;1.92;1.63;;;2.60;99.90;;;;;;5073589;28;20485;-74
2022/12/10 11:44:23;;;;;;;1.45;1.35;;;2.60;99.90;;;;;;5077303;28;20426;-75
2022/12/10 11:47:14;;;;;;;1.95;1.20;;;2.70;99.90;;;;;;5078969;28;20427;-76
2022/12/10 11:49:51;;;;;;;1.52;1.50;;;2.80;99.90;;;;;;5083698;28;20475;-74
2022/12/10 11:53:02;;;;;;;0.98;0.98;;;2.90;99.90;;;;;;5079272;28;21018;-74
2022/12/10 11:55:42;;;;;;;1.60;1.50;;;3.00;99.90;;;;;;5075783;28;20476;-74
2022/12/10 11:58:42;;;;;;;2.43;1.63;;;3.00;99.90;;;;;;5074230;28;20558;-74
2022/12/10 12:01:40;;;;;;;1.20;1.10;;;3.10;99.90;;;;;;5072665;28;20929;-74
2022/12/10 12:04:07;;;;;;;1.50;1.40;;;3.00;99.90;;;;;;5070987;28;20431;-74
2022/12/10 12:06:48;;;;;;;7.40;1.55;;;3.00;99.90;;;;;;5080144;28;20445;-74
2022/12/10 12:09:26;;;;;;;2.78;1.10;;;3.00;99.90;;;;;;5079525;28;21051;-74
2022/12/10 12:12:31;;;;;;;1.67;1.30;;;2.80;99.90;;;;;;5080113;28;20825;-74
2022/12/10 12:15:03;;;;;;;1.57;1.37;;;2.80;99.90;;;;;;5078256;28;20513;-73
2022/12/10 12:17:37;;;;;;;1.52;1.05;;;2.90;99.90;;;;;;5074105;28;20441;-74
2022/12/10 12:20:28;;;;;;;1.95;1.38;;;2.90;99.90;;;;;;5091993;28;21114;-74
2022/12/10 12:23:04;;;;;;;1.80;1.25;;;2.80;99.90;;;;;;5077873;28;20432;-73
2022/12/10 12:25:36;;;;;;;2.00;1.30;;;2.60;99.90;;;;;;5075329;28;20440;-73
2022/12/10 12:28:16;;;;;;;1.23;1.17;;;2.50;99.90;;;;;;5087738;28;20505;-74
2022/12/10 12:30:46;;;;;;;1.42;1.02;;;2.50;99.90;;;;;;5080702;28;20422;-74
2022/12/10 12:33:26;;;;;;;2.97;1.70;;;2.70;99.90;;;;;;5082251;28;20442;-73
2022/12/10 12:36:06;;;;;;;1.23;1.13;;;2.90;99.90;;;;;;5075848;28;20774;-74
2022/12/10 12:38:59;;;;;;;1.20;1.10;;;3.00;99.90;;;;;;5085261;28;20942;-73
2022/12/10 12:41:34;;;;;;;1.45;1.35;;;3.00;99.90;;;;;;5080445;28;20425;-73
2022/12/10 12:44:13;;;;;;;1.75;1.42;;;3.10;99.90;;;;;;5089716;28;20429;-73
2022/12/10 12:46:47;;;;;;;1.27;1.02;;;3.20;99.90;;;;;;5075371;28;20836;-73
2022/12/10 12:49:25;;;;;;;1.10;0.98;;;3.30;99.90;;;;;;5079761;28;20437;-73
2022/12/10 12:52:03;;;;;;;0.63;0.63;;;3.30;99.90;;;;;;5075962;28;20476;-73
2022/12/10 12:54:30;;;;;;;0.80;0.80;;;3.20;99.90;;;;;;5078271;28;20417;-74
2022/12/10 12:57:03;;;;;;;1.27;1.27;;;3.10;99.90;;;;;;5078686;28;20439;-73
2022/12/10 13:00:03;;;;;;;2.28;1.60;;;3.20;99.90;;;;;;5074847;28;20430;-73
2022/12/10 13:03:03;;;;;;;1.20;1.00;;;3.10;99.90;;;;;;5049453;28;20436;-73
2022/12/10 13:05:38;;;;;;;1.50;1.30;;;3.30;99.90;;;;;;5051594;28;20508;-74
2022/12/10 13:08:18;;;;;;;1.48;1.38;;;3.50;99.90;;;;;;5049214;28;21125;-74
2022/12/10 13:10:56;;;;;;;1.95;1.85;;;3.90;99.90;;;;;;5036399;28;21443;-73
2022/12/10 13:13:36;;;;;;;1.23;1.13;;;4.00;99.90;;;;;;5050825;28;20477;-73
2022/12/10 13:16:40;;;;;;;1.10;1.10;;;3.80;99.90;;;;;;5056946;28;21871;-73
2022/12/10 13:19:18;;;;;;;2.90;1.10;;;3.50;99.90;;;;;;5065783;28;20427;-74
2022/12/10 13:21:51;;;;;;;2.87;1.67;;;3.20;99.90;;;;;;5052302;28;20437;-73
2022/12/10 13:24:37;;;;;;;1.30;1.20;;;2.90;99.90;;;;;;5060705;28;20422;-73
2022/12/10 13:27:11;;;;;;;1.58;1.45;;;2.80;99.90;;;;;;5036304;28;20428;-73
2022/12/10 13:29:56;;;;;;;4.30;1.50;;;2.70;99.90;;;;;;5058946;28;20429;-73
2022/12/10 13:32:44;;;;;;;1.90;1.80;;;2.70;99.90;;;;;;5058101;28;20419;-73
2022/12/10 13:35:12;;;;;;;1.30;1.30;;;2.80;99.90;;;;;;5055421;28;21156;-74